Time;durP1;ratioP1;P1;durP2;ratioP2;P2;SDS_P1;SDS_P2;PMS_P1;PMS_P2;Temp;Humidity;BMP_temperature;BMP_pressure;BME280_temperature;BME280_humidity;BME280_pressure;Samples;Min_cycle;Max_cycle;Signal;HPM_P1;HPM_P2
2023/07/18 00:02:27;;;;;;;3.95;1.77;;;;;;;13.83;100.00;101210.34;5179034;28;20034;-73
2023/07/18 00:04:58;;;;;;;9.93;1.90;;;;;;;13.68;100.00;101209.19;5199164;28;20072;-73
2023/07/18 00:07:29;;;;;;;9.98;2.00;;;;;;;13.76;100.00;101201.84;5169561;28;20034;-73
2023/07/18 00:09:59;;;;;;;4.53;1.80;;;;;;;13.73;100.00;101209.03;5178563;28;20038;-73
2023/07/18 00:12:30;;;;;;;6.43;1.92;;;;;;;13.82;100.00;101206.88;5157804;28;20026;-73
2023/07/18 00:15:03;;;;;;;5.80;1.70;;;;;;;13.66;100.00;101210.16;5152222;28;20032;-73
2023/07/18 00:17:34;;;;;;;6.45;1.65;;;;;;;13.74;100.00;101205.47;5158177;28;20117;-73
2023/07/18 00:20:17;;;;;;;5.78;2.53;;;;;;;13.67;100.00;101199.59;5172770;28;20111;-73
2023/07/18 00:22:49;;;;;;;4.55;1.75;;;;;;;13.78;100.00;101209.69;5153385;28;20026;-71
2023/07/18 00:25:20;;;;;;;4.57;1.60;;;;;;;13.91;100.00;101203.06;5175009;28;20030;-72
2023/07/18 00:27:51;;;;;;;4.30;1.75;;;;;;;13.90;100.00;101203.97;5161505;28;20056;-73
2023/07/18 00:30:22;;;;;;;3.75;1.83;;;;;;;13.83;100.00;101213.00;5166605;28;20038;-73
2023/07/18 00:32:52;;;;;;;7.15;1.67;;;;;;;13.60;100.00;101215.66;5140529;28;20380;-72
2023/07/18 00:35:23;;;;;;;8.73;1.85;;;;;;;13.40;100.00;101212.91;5156778;28;20026;-73
2023/07/18 00:37:53;;;;;;;5.78;1.70;;;;;;;13.60;100.00;101215.66;5158742;28;20030;-73
2023/07/18 00:40:25;;;;;;;8.65;1.90;;;;;;;13.70;100.00;101211.72;5150368;28;20512;-73
2023/07/18 00:42:55;;;;;;;5.30;1.63;;;;;;;13.64;100.00;101206.72;5165668;28;20291;-73
2023/07/18 00:45:26;;;;;;;4.95;1.75;;;;;;;13.69;100.00;101208.28;5155330;28;20033;-73
2023/07/18 00:47:56;;;;;;;7.28;2.10;;;;;;;13.62;100.00;101205.94;5173254;28;20034;-73
2023/07/18 00:50:27;;;;;;;4.57;1.83;;;;;;;13.78;100.00;101207.06;5153749;28;20505;-73
2023/07/18 00:53:00;;;;;;;4.72;1.80;;;;;;;13.85;100.00;101205.91;5195064;22;20522;-74
2023/07/18 00:55:31;;;;;;;4.43;1.60;;;;;;;13.65;100.00;101203.19;5155778;28;20034;-74
2023/07/18 00:58:03;;;;;;;7.40;1.60;;;;;;;13.61;100.00;101205.06;5157983;28;20540;-74
2023/07/18 01:00:33;;;;;;;3.67;1.80;;;;;;;13.57;100.00;101202.63;5156735;28;20148;-74
2023/07/18 01:03:04;;;;;;;7.68;1.92;;;;;;;13.66;100.00;101197.00;5165997;28;20028;-71
2023/07/18 01:05:35;;;;;;;14.10;2.63;;;;;;;13.57;100.00;101203.47;5141337;28;20126;-73
2023/07/18 01:08:05;;;;;;;7.00;1.60;;;;;;;13.51;100.00;101211.59;5173069;28;20342;-74
2023/07/18 01:10:38;;;;;;;7.40;1.60;;;;;;;13.64;100.00;101212.84;5144224;28;20554;-74
2023/07/18 01:13:08;;;;;;;8.00;1.88;;;;;;;13.42;100.00;101213.69;5142901;28;20110;-74
2023/07/18 01:15:38;;;;;;;9.45;2.13;;;;;;;13.28;100.00;101203.72;5163031;28;20380;-74
2023/07/18 01:18:09;;;;;;;6.00;2.00;;;;;;;13.33;100.00;101217.53;5161949;28;20521;-74
2023/07/18 01:20:40;;;;;;;12.82;1.80;;;;;;;13.36;100.00;101201.66;5158616;28;20040;-74
2023/07/18 01:23:12;;;;;;;11.73;1.73;;;;;;;13.31;100.00;101205.34;5155970;28;20341;-74
2023/07/18 01:25:42;;;;;;;9.45;1.55;;;;;;;13.36;100.00;101201.66;5157098;28;20116;-74
2023/07/18 01:28:12;;;;;;;6.47;1.80;;;;;;;13.37;100.00;101197.28;5155802;28;20158;-74
2023/07/18 01:30:43;;;;;;;9.07;1.98;;;;;;;13.37;100.00;101197.28;5156557;28;20029;-74
2023/07/18 01:33:13;;;;;;;12.18;1.83;;;;;;;13.37;100.00;101198.09;5155956;28;20431;-74
2023/07/18 01:35:45;;;;;;;6.03;1.85;;;;;;;13.39;100.00;101203.31;5157892;28;20033;-74
2023/07/18 01:38:16;;;;;;;11.85;2.20;;;;;;;13.30;100.00;101199.25;5156911;28;20108;-74
2023/07/18 01:40:46;;;;;;;18.60;2.17;;;;;;;13.13;100.00;101191.16;5157791;28;20501;-73
2023/07/18 01:43:16;;;;;;;8.20;2.17;;;;;;;13.22;100.00;101190.78;5156358;28;20090;-74
2023/07/18 01:45:47;;;;;;;4.93;1.73;;;;;;;13.22;100.00;101188.16;5157530;28;20034;-73
2023/07/18 01:48:19;;;;;;;10.65;2.10;;;;;;;13.13;100.00;101182.41;5155878;28;20018;-74
2023/07/18 01:50:49;;;;;;;8.68;2.17;;;;;;;13.15;100.00;101180.56;5159966;28;20495;-73
2023/07/18 01:53:19;;;;;;;13.38;2.22;;;;;;;13.20;100.00;101189.16;5160135;28;20036;-73
2023/07/18 01:55:50;;;;;;;10.93;2.17;;;;;;;13.19;100.00;101183.03;5158894;28;20026;-74
2023/07/18 01:58:20;;;;;;;9.18;1.95;;;;;;;13.27;100.00;101180.97;5159645;28;20026;-74
2023/07/18 02:00:51;;;;;;;6.88;1.92;;;;;;;13.17;100.00;101178.75;5159243;28;20026;-74
2023/07/18 02:03:21;;;;;;;6.47;1.90;;;;;;;13.04;100.00;101182.75;5142993;28;20441;-74
2023/07/18 02:05:51;;;;;;;6.65;2.00;;;;;;;13.20;100.00;101189.16;5159185;28;20022;-74
2023/07/18 02:08:21;;;;;;;7.03;1.80;;;;;;;13.14;100.00;101182.34;5173618;28;20039;-74
2023/07/18 02:10:52;;;;;;;7.18;2.15;;;;;;;13.20;100.00;101189.16;5189618;28;20583;-74
2023/07/18 02:13:22;;;;;;;10.18;1.90;;;;;;;13.22;100.00;101193.41;5155413;28;20026;-74
2023/07/18 02:15:52;;;;;;;9.93;2.40;;;;;;;13.12;100.00;101196.44;5173218;28;20034;-74
2023/07/18 02:18:23;;;;;;;4.68;1.80;;;;;;;13.36;100.00;101200.78;5159587;28;20487;-74
2023/07/18 02:20:53;;;;;;;7.38;1.90;;;;;;;13.36;100.00;101196.41;5165719;28;20034;-73
2023/07/18 02:23:24;;;;;;;8.07;1.98;;;;;;;13.28;100.00;101194.97;5196552;28;20023;-75
2023/07/18 02:25:54;;;;;;;6.93;1.85;;;;;;;13.13;100.00;101203.41;5172009;28;20030;-74
2023/07/18 02:28:25;;;;;;;6.38;2.00;;;;;;;13.21;100.00;101198.75;5158916;28;20026;-74
2023/07/18 02:30:55;;;;;;;7.18;2.00;;;;;;;13.00;100.00;101197.72;5173613;28;20126;-73
2023/07/18 02:33:26;;;;;;;4.30;1.95;;;;;;;13.02;100.00;101190.66;5165176;28;20072;-75
2023/07/18 02:35:56;;;;;;;10.13;2.20;;;;;;;13.04;100.00;101188.84;5176709;28;20517;-74
2023/07/18 02:38:26;;;;;;;14.05;2.58;;;;;;;12.90;100.00;101193.69;5171561;28;20177;-73
2023/07/18 02:40:57;;;;;;;9.73;1.92;;;;;;;12.87;100.00;101202.56;5162497;28;20057;-74
2023/07/18 02:43:27;;;;;;;11.25;1.90;;;;;;;12.77;100.00;101204.66;5167281;28;20154;-75
2023/07/18 02:45:57;;;;;;;14.57;2.20;;;;;;;12.85;100.00;101197.38;5172040;28;20468;-74
2023/07/18 02:48:28;;;;;;;7.68;2.05;;;;;;;12.94;100.00;101194.47;5176095;28;20621;-74
2023/07/18 02:50:58;;;;;;;8.15;1.80;;;;;;;12.91;100.00;101202.41;5174504;28;20078;-72
2023/07/18 02:53:28;;;;;;;9.45;1.83;;;;;;;12.89;100.00;101201.63;5168309;28;20372;-74
2023/07/18 02:55:58;;;;;;;8.13;2.10;;;;;;;12.74;100.00;101210.00;5169436;28;20033;-73
2023/07/18 02:58:29;;;;;;;6.13;1.90;;;;;;;12.65;100.00;101212.94;5158605;28;20049;-73
2023/07/18 03:00:59;;;;;;;13.57;2.53;;;;;;;12.60;100.00;101217.47;5168978;28;20026;-73
2023/07/18 03:03:30;;;;;;;7.32;1.70;;;;;;;12.51;100.00;101220.44;5171063;28;20094;-74
2023/07/18 03:06:03;;;;;;;8.55;1.90;;;;;;;12.76;100.00;101216.06;5173635;28;20060;-74
2023/07/18 03:08:34;;;;;;;10.13;2.08;;;;;;;12.85;100.00;101213.09;5170715;28;20075;-74
2023/07/18 03:11:04;;;;;;;10.23;2.30;;;;;;;12.75;100.00;101223.97;5154189;28;20165;-74
2023/07/18 03:13:36;;;;;;;7.43;2.13;;;;;;;12.91;100.00;101229.50;5176760;28;20045;-74
2023/07/18 03:16:07;;;;;;;7.28;1.85;;;;;;;12.84;100.00;101231.53;5166535;28;20022;-74
2023/07/18 03:18:37;;;;;;;19.58;2.55;;;;;;;12.86;100.00;101234.97;5177594;28;20087;-74
2023/07/18 03:21:07;;;;;;;13.15;2.38;;;;;;;12.81;100.00;101231.66;5172289;28;20572;-74
2023/07/18 03:23:38;;;;;;;16.67;2.40;;;;;;;12.73;100.00;101231.91;5195715;28;20053;-75
2023/07/18 03:26:08;;;;;;;14.50;2.03;;;;;;;12.87;100.00;101237.56;5176757;28;20053;-74
2023/07/18 03:28:38;;;;;;;13.05;2.15;;;;;;;12.88;100.00;101235.75;5167893;28;20034;-74
2023/07/18 03:31:08;;;;;;;11.13;2.10;;;;;;;12.81;100.00;101235.13;5166730;28;20399;-74
2023/07/18 03:33:40;;;;;;;12.93;2.30;;;;;;;12.80;100.00;101232.56;5167435;28;20116;-74
2023/07/18 03:36:10;;;;;;;13.85;2.30;;;;;;;12.80;100.00;101233.41;5166897;28;20026;-74
2023/07/18 03:38:41;;;;;;;14.98;2.50;;;;;;;13.14;100.00;101233.97;5156584;28;20029;-74
2023/07/18 03:41:11;;;;;;;10.55;1.98;;;;;;;12.98;100.00;101227.56;5157755;28;20056;-74
2023/07/18 03:43:42;;;;;;;10.50;2.90;;;;;;;13.21;100.00;101232.88;5166548;28;20025;-74
2023/07/18 03:46:12;;;;;;;9.32;2.25;;;;;;;13.21;100.00;101232.88;5157146;28;20022;-74
2023/07/18 03:48:42;;;;;;;7.65;2.17;;;;;;;13.28;100.00;101237.84;5158248;28;20026;-75
2023/07/18 03:51:14;;;;;;;9.75;2.00;;;;;;;13.50;100.00;101230.88;5176385;28;20025;-74
2023/07/18 03:53:44;;;;;;;9.00;2.22;;;;;;;13.55;100.00;101234.19;5165760;28;20133;-73
2023/07/18 03:56:15;;;;;;;10.00;1.85;;;;;;;13.49;100.00;101233.56;5163651;28;20109;-75
2023/07/18 03:58:45;;;;;;;8.85;1.92;;;;;;;13.60;100.00;101231.41;5163564;28;20026;-74
2023/07/18 04:01:15;;;;;;;8.30;1.88;;;;;;;13.60;100.00;101215.66;5181952;28;20030;-74
2023/07/18 04:03:46;;;;;;;9.73;2.30;;;;;;;13.77;100.00;101218.50;5173134;28;20517;-75
2023/07/18 04:06:16;;;;;;;10.75;2.10;;;;;;;13.58;100.00;101214.84;5180529;28;20120;-75
2023/07/18 04:08:46;;;;;;;9.38;2.00;;;;;;;13.65;100.00;101209.31;5174847;28;20078;-74
2023/07/18 04:11:17;;;;;;;11.65;1.90;;;;;;;13.78;100.00;101209.69;5179324;28;20108;-74
2023/07/18 04:13:47;;;;;;;8.68;2.22;;;;;;;13.92;100.00;101208.22;5180290;28;20033;-74
2023/07/18 04:16:17;;;;;;;11.02;1.83;;;;;;;14.02;100.00;101204.34;5173758;28;20621;-74
2023/07/18 04:18:47;;;;;;;8.82;1.98;;;;;;;14.21;100.00;101199.22;5173501;28;20087;-73
2023/07/18 04:21:18;;;;;;;10.43;1.98;;;;;;;14.20;100.00;101197.50;5178688;28;20030;-74
2023/07/18 04:23:48;;;;;;;11.10;2.10;;;;;;;14.05;100.00;101208.63;5173794;28;20033;-73
2023/07/18 04:26:18;;;;;;;12.60;2.10;;;;;;;14.08;100.00;101190.09;5180381;28;20030;-74
2023/07/18 04:28:49;;;;;;;11.02;2.20;;;;;;;14.32;100.00;101199.66;5180190;28;20103;-73
2023/07/18 04:31:19;;;;;;;13.02;2.22;;;;;;;14.39;100.00;101201.97;5174939;28;20018;-74
2023/07/18 04:33:49;;;;;;;16.13;2.17;;;;;;;14.41;100.00;101191.41;5175232;28;20032;-73
2023/07/18 04:36:19;;;;;;;13.93;2.50;;;;;;;14.32;100.00;101195.25;5174310;28;20030;-73
2023/07/18 04:38:50;;;;;;;11.18;2.20;;;;;;;14.30;100.00;101193.59;5178868;28;20383;-74
2023/07/18 04:41:20;;;;;;;11.07;2.17;;;;;;;14.46;100.00;101199.94;5188168;28;20025;-74
2023/07/18 04:43:50;;;;;;;13.13;2.40;;;;;;;14.57;100.00;101195.94;5174671;28;20277;-74
2023/07/18 04:46:20;;;;;;;11.77;2.00;;;;;;;14.76;100.00;101194.25;5179042;28;20556;-73
2023/07/18 04:48:51;;;;;;;10.38;2.15;;;;;;;15.24;100.00;101192.97;5175087;28;20067;-74
2023/07/18 04:51:21;;;;;;;13.13;2.42;;;;;;;15.80;100.00;101190.38;5178268;28;20026;-74
2023/07/18 04:53:52;;;;;;;11.15;2.17;;;;;;;17.32;100.00;101179.94;5158921;28;20032;-74
2023/07/18 04:56:22;;;;;;;9.75;1.77;;;;;;;19.30;95.79;101174.50;5173454;28;20080;-75
2023/07/18 04:58:52;;;;;;;8.45;1.90;;;;;;;19.54;84.45;101173.00;5177491;28;20036;-74
2023/07/18 05:01:23;;;;;;;7.40;1.57;;;;;;;18.71;91.05;101191.44;5178055;28;20042;-74
2023/07/18 05:03:53;;;;;;;10.57;1.80;;;;;;;18.52;90.75;101188.16;5177503;28;20308;-74
2023/07/18 05:06:24;;;;;;;8.43;1.60;;;;;;;18.34;93.91;101184.78;5174820;28;20471;-74
2023/07/18 05:08:54;;;;;;;9.35;1.60;;;;;;;18.90;93.21;101180.50;5179548;28;20276;-75
2023/07/18 05:11:24;;;;;;;6.10;1.67;;;;;;;20.08;84.82;101177.47;5193871;28;20060;-75
2023/07/18 05:13:54;;;;;;;6.43;1.80;;;;;;;19.39;87.60;101186.34;5186019;28;20037;-75
2023/07/18 05:16:25;;;;;;;14.00;2.10;;;;;;;19.39;89.04;101183.69;5154493;28;20707;-74
2023/07/18 05:18:55;;;;;;;7.00;2.00;;;;;;;21.19;85.35;101177.81;5174171;28;20297;-74
2023/07/18 05:21:25;;;;;;;5.55;1.63;;;;;;;22.15;79.70;101173.50;5180459;28;20850;-74
2023/07/18 05:23:56;;;;;;;4.35;1.55;;;;;;;22.52;77.11;101162.72;5182050;28;20032;-75
2023/07/18 05:26:26;;;;;;;7.35;1.80;;;;;;;21.42;79.77;101174.44;5172962;28;20026;-75
2023/07/18 05:28:57;;;;;;;4.03;1.80;;;;;;;20.33;85.04;101185.50;5176319;28;20022;-75
2023/07/18 05:31:27;;;;;;;4.20;1.90;;;;;;;19.21;91.00;101179.53;5175994;28;20110;-74
2023/07/18 05:33:58;;;;;;;3.38;1.80;;;;;;;19.64;90.06;101179.41;5177289;28;20280;-74
2023/07/18 05:36:28;;;;;;;4.53;1.77;;;;;;;20.35;87.70;101182.78;5177162;28;20038;-73
2023/07/18 05:39:00;;;;;;;5.37;1.87;;;;;;;20.48;86.50;101179.19;5176612;28;20030;-75
2023/07/18 05:41:30;;;;;;;6.65;2.15;;;;;;;20.30;85.63;101187.53;5179223;28;20283;-75
2023/07/18 05:44:00;;;;;;;5.32;2.15;;;;;;;20.65;83.02;101186.06;5160447;28;20026;-75
2023/07/18 05:46:31;;;;;;;5.82;1.92;;;;;;;20.56;86.87;101192.84;5158328;28;20025;-75
2023/07/18 05:49:01;;;;;;;9.55;2.15;;;;;;;21.14;84.23;101190.59;5168025;28;20487;-75
2023/07/18 05:51:31;;;;;;;9.95;2.17;;;;;;;21.69;80.28;101189.31;5177729;28;20026;-75
2023/07/18 05:54:04;;;;;;;10.35;2.22;;;;;;;22.17;76.20;101182.22;5163046;28;20149;-74
2023/07/18 05:56:34;;;;;;;5.95;2.50;;;;;;;21.55;81.38;101197.38;5164741;28;20086;-74
2023/07/18 05:59:06;;;;;;;6.13;2.03;;;;;;;20.89;83.27;101198.56;5170556;28;20026;-73
2023/07/18 06:01:36;;;;;;;8.18;2.20;;;;;;;21.66;79.58;101194.00;5170873;28;20037;-73
2023/07/18 06:04:07;;;;;;;8.83;2.27;;;;;;;21.95;81.73;101198.09;5162460;28;20033;-74
2023/07/18 06:06:38;;;;;;;8.47;2.07;;;;;;;22.10;80.44;101188.97;5177476;28;20273;-74
2023/07/18 06:09:08;;;;;;;5.88;2.40;;;;;;;22.08;82.38;101198.91;5177798;28;20764;-74
2023/07/18 06:11:38;;;;;;;5.63;2.33;;;;;;;21.89;84.86;101202.03;5177114;28;20050;-74
2023/07/18 06:14:09;;;;;;;7.22;2.30;;;;;;;21.42;85.23;101195.72;5180266;28;20062;-74
2023/07/18 06:16:39;;;;;;;5.27;2.23;;;;;;;21.76;84.18;101195.06;5193596;28;20035;-74
2023/07/18 06:19:09;;;;;;;6.88;2.40;;;;;;;21.85;84.33;101191.72;5179183;28;20782;-75
2023/07/18 06:21:39;;;;;;;6.63;2.47;;;;;;;21.50;83.30;101193.34;5181186;28;20060;-74
2023/07/18 06:24:10;;;;;;;10.55;2.53;;;;;;;21.92;85.08;101195.66;5184524;28;21018;-74
2023/07/18 06:26:40;;;;;;;10.43;2.70;;;;;;;21.82;85.45;101189.28;5177787;28;20030;-74
2023/07/18 06:29:10;;;;;;;7.75;3.10;;;;;;;22.19;80.94;101188.28;5189893;28;20018;-73
2023/07/18 06:31:41;;;;;;;7.47;2.70;;;;;;;21.47;86.78;101190.91;5185214;28;20029;-74
2023/07/18 06:34:12;;;;;;;6.63;2.40;;;;;;;21.80;86.79;101197.38;5177962;28;20280;-74
2023/07/18 06:36:44;;;;;;;7.57;2.55;;;;;;;22.27;81.05;101191.25;5157389;28;20030;-74
2023/07/18 06:39:16;;;;;;;5.88;2.38;;;;;;;22.15;83.52;101186.81;5157396;28;20038;-73
2023/07/18 06:41:46;;;;;;;5.97;2.22;;;;;;;21.39;83.13;101198.59;5179531;28;20061;-74
2023/07/18 06:44:18;;;;;;;5.28;2.05;;;;;;;22.37;82.66;101194.91;5186431;28;20026;-73
2023/07/18 06:46:49;;;;;;;5.60;2.50;;;;;;;23.01;79.94;101193.50;5181241;28;20120;-72
2023/07/18 06:49:20;;;;;;;5.88;1.95;;;;;;;22.72;81.17;101194.03;5180329;28;20037;-74
2023/07/18 06:54:26;;;;;;;3.90;1.70;;;;;;;23.51;78.72;101179.75;5253433;23;20069;-73
2023/07/18 06:56:56;;;;;;;5.23;2.00;;;;;;;24.15;72.07;101184.31;5176119;28;20026;-73
2023/07/18 06:59:27;;;;;;;4.60;1.80;;;;;;;23.90;75.03;101179.25;5175125;28;20311;-74
2023/07/18 07:01:57;;;;;;;6.10;2.20;;;;;;;23.70;75.03;101171.97;5182815;28;20299;-74
2023/07/18 07:04:27;;;;;;;6.05;1.65;;;;;;;24.44;75.80;101172.06;5192378;28;20341;-73
2023/07/18 07:06:59;;;;;;;4.37;1.60;;;;;;;24.48;72.26;101168.16;5179033;28;20432;-73
2023/07/18 07:09:30;;;;;;;3.20;1.77;;;;;;;23.52;75.74;101165.44;5179348;28;20314;-73
2023/07/18 07:12:01;;;;;;;4.80;1.77;;;;;;;23.65;77.69;101168.84;5179663;28;20133;-73
2023/07/18 07:14:32;;;;;;;5.18;1.90;;;;;;;22.59;77.22;101174.59;5182360;28;20093;-72
2023/07/18 07:17:03;;;;;;;6.63;1.40;;;;;;;23.63;74.17;101162.78;5177058;28;20021;-71
2023/07/18 07:19:33;;;;;;;5.00;1.35;;;;;;;24.10;72.87;101167.81;5176711;28;20082;-73
2023/07/18 07:22:03;;;;;;;3.60;1.33;;;;;;;24.25;73.91;101166.53;5182720;28;20448;-73
2023/07/18 07:24:34;;;;;;;5.40;1.50;;;;;;;25.88;67.27;101144.22;5178980;28;20287;-72
2023/07/18 07:27:05;;;;;;;5.23;1.60;;;;;;;25.17;67.83;101157.69;5178520;28;20084;-72
2023/07/18 07:29:41;;;;;;;4.40;1.42;;;;;;;25.04;67.58;101162.41;5175810;28;20672;-72
2023/07/18 07:32:11;;;;;;;2.90;1.33;;;;;;;24.73;72.39;101147.28;5175665;28;20041;-72
2023/07/18 07:34:42;;;;;;;5.20;1.60;;;;;;;24.90;72.33;101153.84;5175395;28;20018;-72
2023/07/18 07:37:12;;;;;;;3.05;1.10;;;;;;;25.01;72.95;101162.66;5176533;28;20277;-72
2023/07/18 07:39:43;;;;;;;3.73;1.20;;;;;;;25.90;68.93;101152.09;5175730;28;20037;-74
2023/07/18 07:42:13;;;;;;;5.47;1.70;;;;;;;25.83;68.66;101142.91;5174696;28;20971;-73
2023/07/18 07:44:45;;;;;;;3.65;1.38;;;;;;;26.16;67.43;101142.56;5176335;28;20283;-74
2023/07/18 07:47:15;;;;;;;2.58;1.10;;;;;;;26.00;68.17;101143.09;5176449;28;20032;-73
2023/07/18 07:49:46;;;;;;;5.60;1.40;;;;;;;26.37;68.33;101146.78;5177752;28;20021;-73
2023/07/18 07:52:16;;;;;;;2.87;1.20;;;;;;;27.47;65.47;101146.06;5174793;28;20631;-73
2023/07/18 07:54:48;;;;;;;4.40;1.20;;;;;;;26.71;63.79;101144.56;5201326;28;20080;-74
2023/07/18 07:57:18;;;;;;;3.25;1.25;;;;;;;28.35;60.79;101138.22;5201288;28;20040;-74
2023/07/18 07:59:50;;;;;;;3.53;1.00;;;;;;;27.96;61.90;101137.63;5174515;28;20030;-72
2023/07/18 08:02:21;;;;;;;4.95;1.60;;;;;;;27.71;59.67;101132.97;5200247;28;20545;-73
2023/07/18 08:04:51;;;;;;;3.93;1.33;;;;;;;28.82;59.45;101135.94;5211592;28;20028;-73
2023/07/18 08:07:21;;;;;;;3.17;1.00;;;;;;;29.53;58.08;101128.47;5199093;28;20472;-73
2023/07/18 08:09:52;;;;;;;2.53;1.07;;;;;;;28.13;61.86;101131.41;5198773;28;20452;-73
2023/07/18 08:12:22;;;;;;;2.20;0.93;;;;;;;27.79;59.71;101134.91;5178034;28;20022;-72
2023/07/18 08:14:52;;;;;;;2.33;1.10;;;;;;;29.29;57.45;101125.66;5186837;28;20037;-73
2023/07/18 08:17:23;;;;;;;4.65;1.33;;;;;;;28.08;60.44;101130.19;5195690;28;20380;-73
2023/07/18 08:19:53;;;;;;;2.53;1.20;;;;;;;28.40;60.65;101131.38;5198738;28;20019;-73
2023/07/18 08:22:23;;;;;;;3.63;1.10;;;;;;;29.36;56.66;101124.84;5173789;28;20040;-73
2023/07/18 08:24:54;;;;;;;4.03;1.03;;;;;;;29.01;57.58;101130.38;5182612;28;20034;-73
2023/07/18 08:27:24;;;;;;;3.53;1.20;;;;;;;29.79;55.81;101124.75;5183535;28;20034;-72
2023/07/18 08:29:55;;;;;;;2.17;0.82;;;;;;;28.68;57.32;101124.03;5190743;28;20384;-73
2023/07/18 08:32:25;;;;;;;1.77;0.90;;;;;;;30.69;54.38;101114.78;5195233;28;20083;-72
2023/07/18 08:34:55;;;;;;;4.22;1.17;;;;;;;30.34;54.22;101116.94;5192689;28;20034;-73
2023/07/18 08:37:25;;;;;;;2.37;0.80;;;;;;;30.46;55.49;101113.72;5175692;28;20041;-72
2023/07/18 08:39:56;;;;;;;2.50;0.90;;;;;;;29.51;57.41;101122.41;5193959;28;20488;-73
2023/07/18 08:42:27;;;;;;;5.87;1.47;;;;;;;29.81;56.78;101122.72;5186061;28;20029;-72
2023/07/18 08:44:58;;;;;;;2.15;0.80;;;;;;;30.61;55.83;101111.25;5201252;28;20704;-74
2023/07/18 08:47:29;;;;;;;2.42;1.10;;;;;;;31.11;54.50;101105.44;5185577;28;20018;-73
2023/07/18 08:50:02;;;;;;;2.40;0.82;;;;;;;30.43;56.14;101114.06;5202128;28;20124;-74
2023/07/18 08:52:33;;;;;;;2.17;0.80;;;;;;;31.02;53.48;101101.03;5189640;28;20429;-73
2023/07/18 08:55:05;;;;;;;1.13;0.60;;;;;;;32.36;49.64;101094.34;5180875;28;20022;-74
2023/07/18 08:57:36;;;;;;;2.50;0.90;;;;;;;30.15;53.12;101099.22;5182247;28;20042;-73
2023/07/18 09:00:07;;;;;;;2.70;0.93;;;;;;;32.47;50.31;101083.09;5173265;28;20049;-73
2023/07/18 09:02:38;;;;;;;2.90;1.35;;;;;;;31.63;53.17;101093.09;5182049;28;20487;-73
2023/07/18 09:05:27;;;;;;;3.40;1.00;;;;;;;30.91;53.98;101082.50;5184467;28;20079;-74
2023/07/18 09:07:58;;;;;;;3.05;1.00;;;;;;;31.83;52.82;101077.25;5173258;28;20034;-73
2023/07/18 09:10:29;;;;;;;2.72;0.90;;;;;;;31.00;49.73;101084.16;5184906;28;20069;-73
2023/07/18 09:13:02;;;;;;;1.92;0.70;;;;;;;31.56;50.77;101072.34;5189576;28;20046;-73
2023/07/18 09:15:34;;;;;;;1.45;0.85;;;;;;;31.13;52.54;101070.13;5183198;28;20562;-73
2023/07/18 09:18:12;;;;;;;4.82;0.88;;;;;;;31.06;51.29;101069.94;5190804;28;20025;-73
2023/07/18 09:20:43;;;;;;;2.70;0.70;;;;;;;32.69;49.53;101065.16;5195115;28;20122;-73
2023/07/18 09:23:13;;;;;;;3.00;0.70;;;;;;;32.59;49.21;101078.91;5182786;28;20046;-74
2023/07/18 09:25:43;;;;;;;2.97;1.00;;;;;;;28.83;53.25;101080.22;5187394;28;20364;-73
2023/07/18 09:28:14;;;;;;;2.83;1.00;;;;;;;30.54;55.16;101075.09;5174125;28;20515;-74
2023/07/18 09:30:44;;;;;;;1.90;0.70;;;;;;;31.18;50.47;101065.06;5180296;28;20033;-73
2023/07/18 09:33:24;;;;;;;2.23;0.87;;;;;;;29.84;52.92;101062.22;5183521;28;20026;-73
2023/07/18 09:35:58;;;;;;;3.40;0.80;;;;;;;31.58;49.94;101065.75;5185401;28;20030;-73
2023/07/18 09:38:29;;;;;;;3.17;0.90;;;;;;;30.87;50.62;101056.84;5188596;28;20021;-73
2023/07/18 09:41:01;;;;;;;2.97;0.90;;;;;;;30.91;50.26;101052.81;5180855;28;20204;-73
2023/07/18 09:43:33;;;;;;;2.10;0.80;;;;;;;31.31;50.28;101058.09;5175352;28;20026;-72
2023/07/18 09:46:07;;;;;;;3.55;0.80;;;;;;;31.38;48.24;101059.06;5181328;28;20046;-73
2023/07/18 09:48:38;;;;;;;2.90;0.73;;;;;;;32.67;47.68;101062.59;5181458;28;20403;-73
2023/07/18 09:51:15;;;;;;;1.33;0.73;;;;;;;30.72;51.68;101059.56;5191823;28;20037;-73
2023/07/18 09:53:46;;;;;;;1.33;0.70;;;;;;;32.10;48.67;101055.97;5184059;28;20022;-73
2023/07/18 09:56:17;;;;;;;1.35;0.60;;;;;;;30.65;49.11;101047.78;5193638;28;20061;-73
2023/07/18 09:58:48;;;;;;;1.67;0.65;;;;;;;30.59;49.64;101048.47;5183966;28;20507;-72
2023/07/18 10:01:20;;;;;;;1.75;0.70;;;;;;;29.50;52.95;101047.97;5173360;28;20105;-73
2023/07/18 10:03:52;;;;;;;2.28;0.63;;;;;;;29.81;52.63;101038.28;5175429;28;20087;-72
2023/07/18 10:06:24;;;;;;;2.53;0.95;;;;;;;30.18;51.98;101033.28;5178292;28;20033;-73
2023/07/18 10:08:55;;;;;;;1.35;0.57;;;;;;;29.82;52.72;101029.19;5173942;28;20041;-73
2023/07/18 10:11:25;;;;;;;2.75;0.70;;;;;;;30.16;52.16;101029.91;5173170;28;20504;-73
2023/07/18 10:13:55;;;;;;;1.90;0.80;;;;;;;29.67;53.01;101033.53;5172907;28;20031;-74
2023/07/18 10:16:27;;;;;;;2.93;0.90;;;;;;;29.62;51.17;101025.09;5187239;28;20036;-73
2023/07/18 10:18:57;;;;;;;2.25;0.73;;;;;;;29.21;54.38;101031.34;5180196;28;20018;-73
2023/07/18 10:21:29;;;;;;;2.27;0.80;;;;;;;27.64;53.94;101028.91;5188033;28;20118;-73
2023/07/18 10:24:20;;;;;;;2.80;0.90;;;;;;;28.29;57.66;101026.69;5180260;28;20037;-73
2023/07/18 10:27:06;;;;;;;4.63;0.85;;;;;;;27.48;56.77;101016.13;5192029;28;20530;-71
2023/07/18 10:29:41;;;;;;;1.75;0.75;;;;;;;27.45;57.57;101007.56;5182012;28;20086;-71
2023/07/18 10:32:11;;;;;;;2.90;0.82;;;;;;;27.48;57.29;101008.06;5179117;28;20026;-73
2023/07/18 10:34:52;;;;;;;3.25;0.90;;;;;;;27.54;59.14;101007.47;5183166;28;20034;-72
2023/07/18 10:37:26;;;;;;;1.52;0.80;;;;;;;26.89;59.00;101007.66;5185398;28;20026;-71
2023/07/18 10:39:57;;;;;;;2.28;0.90;;;;;;;26.34;59.81;101013.03;5185225;28;20185;-72
2023/07/18 10:42:30;;;;;;;2.15;0.80;;;;;;;26.88;59.71;100999.75;5186881;28;20045;-73
2023/07/18 10:45:05;;;;;;;1.35;0.70;;;;;;;26.59;59.03;101000.84;5178293;28;20022;-72
2023/07/18 10:47:37;;;;;;;1.90;0.90;;;;;;;26.51;60.62;101001.59;5178872;28;20036;-72
2023/07/18 10:50:08;;;;;;;4.30;0.90;;;;;;;26.73;58.87;100992.34;5183193;28;20041;-73
2023/07/18 10:52:40;;;;;;;3.13;0.95;;;;;;;26.83;60.30;100997.53;5185092;28;20022;-72
2023/07/18 10:55:12;;;;;;;2.13;0.85;;;;;;;27.12;61.56;100989.38;5174685;28;20315;-73
2023/07/18 10:57:43;;;;;;;2.08;0.75;;;;;;;26.87;59.52;100981.97;5176864;28;20575;-72
2023/07/18 11:00:13;;;;;;;3.70;1.05;;;;;;;26.58;57.79;100983.06;5183302;28;20116;-73
2023/07/18 11:02:44;;;;;;;3.00;0.90;;;;;;;26.48;60.51;100984.94;5179846;28;20287;-73
2023/07/18 11:05:14;;;;;;;2.72;0.85;;;;;;;26.53;61.45;100988.03;5180886;28;20025;-72
2023/07/18 11:07:48;;;;;;;2.05;0.75;;;;;;;26.51;61.35;100987.34;5183933;28;20278;-71
2023/07/18 11:10:19;;;;;;;1.88;0.70;;;;;;;26.64;61.16;100983.34;5179410;28;20033;-72
2023/07/18 11:12:52;;;;;;;1.63;0.73;;;;;;;27.03;59.16;100979.50;5189710;28;20542;-72
2023/07/18 11:15:22;;;;;;;4.35;0.80;;;;;;;26.71;61.10;100980.91;5182193;28;20037;-72
2023/07/18 11:17:53;;;;;;;1.93;0.80;;;;;;;26.46;56.58;100979.69;5186384;28;20045;-73
2023/07/18 11:20:24;;;;;;;2.90;0.68;;;;;;;26.52;57.22;100978.31;5187265;28;20296;-71
2023/07/18 11:22:54;;;;;;;2.13;0.70;;;;;;;26.73;57.38;100968.19;5176245;28;20029;-71
2023/07/18 11:25:25;;;;;;;3.47;0.82;;;;;;;26.51;57.73;100968.56;5179811;28;20033;-72
2023/07/18 11:27:55;;;;;;;1.38;0.55;;;;;;;26.36;57.75;100972.69;5181275;28;20052;-72
2023/07/18 11:30:26;;;;;;;2.00;0.80;;;;;;;26.64;58.38;100971.75;5180656;28;20056;-72
2023/07/18 11:32:56;;;;;;;1.60;0.60;;;;;;;27.07;58.08;100970.16;5180294;28;20495;-72
2023/07/18 11:35:26;;;;;;;1.80;0.63;;;;;;;26.03;55.77;100970.47;5181599;28;20025;-73
2023/07/18 11:37:56;;;;;;;5.65;0.70;;;;;;;26.52;56.64;100968.41;5175981;28;20026;-73
2023/07/18 11:40:27;;;;;;;1.43;0.70;;;;;;;26.41;56.58;100970.38;5173537;28;20071;-73